createdAt,value
2022-11-05T00:00:51.742Z,96960.83
2022-11-05T00:03:38.314Z,96961.41
2022-11-05T00:06:28.018Z,96967.71
2022-11-05T00:09:14.717Z,96969.08
2022-11-05T00:12:01.385Z,96972.73
2022-11-05T00:14:48.038Z,96979.41
2022-11-05T00:17:15.978Z,96983.09
2022-11-05T00:19:43.835Z,96978.60
2022-11-05T00:22:30.525Z,96983.89
2022-11-05T00:25:17.116Z,96993.86
2022-11-05T00:27:53.118Z,97004.44
2022-11-05T00:30:24.415Z,97008.41
2022-11-05T00:32:53.321Z,97015.09
2022-11-05T00:35:22.669Z,97007.85
2022-11-05T00:37:54.035Z,97006.10
2022-11-05T00:40:24.798Z,97003.04
2022-11-05T00:43:11.663Z,97006.01
2022-11-05T00:45:41.212Z,97008.95
2022-11-05T00:48:27.902Z,97008.70
2022-11-05T00:50:55.896Z,97005.94
2022-11-05T00:53:23.872Z,97004.16
2022-11-05T00:55:51.934Z,97002.05
2022-11-05T00:58:22.424Z,97006.25
2022-11-05T01:00:53.701Z,97006.75
2022-11-05T01:03:27.565Z,97013.83
2022-11-05T01:06:07.625Z,97013.73
2022-11-05T01:08:35.832Z,97014.54
2022-11-05T01:11:10.794Z,97016.11
2022-11-05T01:13:39.783Z,97026.31
2022-11-05T01:16:10.346Z,97024.27
2022-11-05T01:18:39.075Z,97026.29
2022-11-05T01:21:14.181Z,97033.44
2022-11-05T01:23:44.971Z,97044.02
2022-11-05T01:26:12.868Z,97046.55
2022-11-05T01:28:40.949Z,97044.90
2022-11-05T01:31:08.979Z,97046.56
2022-11-05T01:33:37.033Z,97047.90
2022-11-05T01:36:05.290Z,97050.23
2022-11-05T01:38:33.171Z,97052.75
2022-11-05T01:41:01.106Z,97062.45
2022-11-05T01:43:52.364Z,97063.46
2022-11-05T01:46:29.543Z,97070.34
2022-11-05T01:49:06.988Z,97077.29
2022-11-05T01:51:35.060Z,97079.96
2022-11-05T01:54:10.292Z,97080.92
2022-11-05T01:56:47.055Z,97084.13
2022-11-05T01:59:30.476Z,97093.90
2022-11-05T02:02:00.895Z,97098.66
2022-11-05T02:04:38.893Z,97095.52
2022-11-05T02:07:09.371Z,97101.52
2022-11-05T02:09:54.762Z,97100.85
2022-11-05T02:12:24.251Z,97103.25
2022-11-05T02:14:52.139Z,97103.27
2022-11-05T02:17:57.813Z,97109.50
2022-11-05T02:20:55.145Z,97105.02
2022-11-05T02:23:47.701Z,97105.23
2022-11-05T02:27:03.591Z,97107.02
2022-11-05T02:29:50.107Z,97110.40
2022-11-05T02:32:30.960Z,97112.38
2022-11-05T02:35:34.970Z,97119.41
2022-11-05T02:38:10.578Z,97118.25
2022-11-05T02:40:54.127Z,97117.02
2022-11-05T02:43:46.619Z,97114.58
2022-11-05T02:46:26.885Z,97119.56
2022-11-05T02:49:19.108Z,97123.11
2022-11-05T02:51:58.954Z,97124.86
2022-11-05T02:54:45.855Z,97128.17
2022-11-05T02:57:13.719Z,97140.85
2022-11-05T02:59:41.571Z,97146.33
2022-11-05T03:02:09.488Z,97147.02
2022-11-05T03:04:37.619Z,97157.04
2022-11-05T03:07:25.252Z,97159.75
2022-11-05T03:10:08.603Z,97168.45
2022-11-05T03:12:57.127Z,97178.40
2022-11-05T03:16:00.672Z,97181.60
2022-11-05T03:18:28.527Z,97190.56
2022-11-05T03:21:27.720Z,97196.95
2022-11-05T03:24:21.359Z,97200.81
2022-11-05T03:26:56.602Z,97207.05
2022-11-05T03:29:30.370Z,97202.23
2022-11-05T03:32:02.473Z,97198.77
2022-11-05T03:34:41.883Z,97199.14
2022-11-05T03:37:11.059Z,97197.73
2022-11-05T03:39:46.471Z,97201.66
2022-11-05T03:42:18.811Z,97204.88
2022-11-05T03:44:52.614Z,97200.23
2022-11-05T03:47:26.482Z,97198.36
2022-11-05T03:50:14.598Z,97202.25
2022-11-05T03:53:07.642Z,97207.02
2022-11-05T03:55:42.688Z,97210.73
2022-11-05T03:58:13.247Z,97214.95
2022-11-05T04:00:41.526Z,97222.62
2022-11-05T04:03:09.684Z,97220.55
2022-11-05T04:05:37.787Z,97212.99
2022-11-05T04:08:24.502Z,97206.88
2022-11-05T04:11:11.261Z,97212.52
2022-11-05T04:13:39.131Z,97216.48
2022-11-05T04:16:25.671Z,97217.44
2022-11-05T04:18:53.605Z,97211.85
2022-11-05T04:21:40.225Z,97214.61
2022-11-05T04:24:08.356Z,97219.89
2022-11-05T04:26:43.842Z,97221.94
2022-11-05T04:29:30.438Z,97221.25
2022-11-05T04:31:58.410Z,97221.16
2022-11-05T04:34:26.291Z,97216.41
2022-11-05T04:36:54.191Z,97222.68
2022-11-05T04:39:22.082Z,97225.59
2022-11-05T04:41:49.981Z,97221.20
2022-11-05T04:44:17.911Z,97217.42
2022-11-05T04:46:45.826Z,97215.09
2022-11-05T04:49:13.717Z,97218.52
2022-11-05T04:51:41.593Z,97223.66
2022-11-05T04:54:09.472Z,97222.60
2022-11-05T04:56:37.326Z,97225.11
2022-11-05T04:59:05.231Z,97226.94
2022-11-05T05:01:33.227Z,97228.67
2022-11-05T05:04:01.439Z,97227.15
2022-11-05T05:06:29.367Z,97233.48
2022-11-05T05:08:57.304Z,97229.71
2022-11-05T05:11:25.163Z,97235.12
2022-11-05T05:13:53.008Z,97237.34
2022-11-05T05:16:24.053Z,97250.56
2022-11-05T05:18:53.132Z,97257.64
2022-11-05T05:21:38.590Z,97256.13
2022-11-05T05:24:18.783Z,97264.50
2022-11-05T05:26:49.041Z,97262.48
2022-11-05T05:29:18.069Z,97270.98
2022-11-05T05:31:46.068Z,97270.98
2022-11-05T05:34:14.917Z,97277.77
2022-11-05T05:36:42.791Z,97270.06
2022-11-05T05:39:13.511Z,97272.08
2022-11-05T05:41:41.467Z,97274.80
2022-11-05T05:44:09.395Z,97280.67
2022-11-05T05:46:37.334Z,97287.63
2022-11-05T05:49:11.076Z,97291.13
2022-11-05T05:51:40.529Z,97299.69
2022-11-05T05:54:08.607Z,97300.48
2022-11-05T05:56:36.498Z,97306.33
2022-11-05T05:59:05.611Z,97311.48
2022-11-05T06:01:34.196Z,97319.05
2022-11-05T06:04:02.599Z,97317.30
2022-11-05T06:06:30.608Z,97324.35
2022-11-05T06:08:58.531Z,97329.45
2022-11-05T06:11:26.498Z,97333.11
2022-11-05T06:13:54.624Z,97341.09
2022-11-05T06:16:22.567Z,97344.77
2022-11-05T06:18:50.511Z,97350.92
2022-11-05T06:21:18.537Z,97351.38
2022-11-05T06:23:48.429Z,97355.54
2022-11-05T06:26:18.175Z,97367.71
2022-11-05T06:28:46.810Z,97368.08
2022-11-05T06:31:15.319Z,97373.65
2022-11-05T06:33:43.210Z,97375.09
2022-11-05T06:36:15.493Z,97376.68
2022-11-05T06:38:43.870Z,97377.89
2022-11-05T06:41:11.870Z,97381.41
2022-11-05T06:43:39.981Z,97385.89
2022-11-05T06:46:09.671Z,97386.86
2022-11-05T06:48:38.144Z,97387.34
2022-11-05T06:51:07.561Z,97393.15
2022-11-05T06:53:35.987Z,97398.17
2022-11-05T06:56:06.203Z,97403.42
2022-11-05T06:58:34.420Z,97407.85
2022-11-05T07:01:10.370Z,97403.89
2022-11-05T07:03:39.523Z,97406.95
2022-11-05T07:06:07.667Z,97407.94
2022-11-05T07:08:37.679Z,97410.69
2022-11-05T07:11:06.602Z,97415.88
2022-11-05T07:13:34.550Z,97414.84
2022-11-05T07:16:02.528Z,97417.25
2022-11-05T07:18:30.396Z,97419.27
2022-11-05T07:21:00.289Z,97423.89
2022-11-05T07:23:28.299Z,97428.92
2022-11-05T07:25:56.275Z,97431.13
2022-11-05T07:28:24.135Z,97438.84
2022-11-05T07:30:52.064Z,97443.70
2022-11-05T07:33:20.020Z,97446.84
2022-11-05T07:35:47.948Z,97447.41
2022-11-05T07:38:15.896Z,97455.63
2022-11-05T07:40:43.815Z,97455.95
2022-11-05T07:43:11.912Z,97457.02
2022-11-05T07:45:40.118Z,97458.46
2022-11-05T07:48:08.396Z,97458.33
2022-11-05T07:50:37.738Z,97458.89
2022-11-05T07:53:07.834Z,97463.81
2022-11-05T07:55:36.086Z,97461.80
2022-11-05T07:58:04.597Z,97463.30
2022-11-05T08:00:33.847Z,97463.85
2022-11-05T08:03:15.301Z,97459.86
2022-11-05T08:05:46.368Z,97464.65
2022-11-05T08:08:19.383Z,97466.17
2022-11-05T08:10:47.568Z,97463.81
2022-11-05T08:13:16.248Z,97465.48
2022-11-05T08:15:44.783Z,97467.14
2022-11-05T08:18:15.361Z,97468.63
2022-11-05T08:20:44.944Z,97468.63
2022-11-05T08:23:13.318Z,97471.02
2022-11-05T08:25:42.188Z,97479.86
2022-11-05T08:28:13.059Z,97481.83
2022-11-05T08:30:41.410Z,97483.89
2022-11-05T08:33:13.279Z,97484.23
2022-11-05T08:35:41.831Z,97488.41
2022-11-05T08:38:13.893Z,97489.02
2022-11-05T08:40:43.268Z,97491.16
2022-11-05T08:43:13.803Z,97493.52
2022-11-05T08:45:42.450Z,97497.58
2022-11-05T08:48:15.054Z,97505.84
2022-11-05T08:50:44.971Z,97506.98
2022-11-05T08:53:14.310Z,97513.48
2022-11-05T08:55:44.158Z,97517.26
2022-11-05T08:58:17.783Z,97520.91
2022-11-05T09:00:48.382Z,97513.14
2022-11-05T09:03:17.242Z,97512.61
2022-11-05T09:05:45.470Z,97517.32
2022-11-05T09:08:16.597Z,97515.39
2022-11-05T09:10:45.902Z,97517.57
2022-11-05T09:13:18.836Z,97522.17
2022-11-05T09:15:49.373Z,97523.17
2022-11-05T09:18:18.886Z,97520.31
2022-11-05T09:20:47.219Z,97527.38
2022-11-05T09:23:15.849Z,97528.50
2022-11-05T09:25:44.958Z,97531.25
2022-11-05T09:28:17.206Z,97529.62
2022-11-05T09:30:50.921Z,97529.02
2022-11-05T09:33:22.116Z,97535.04
2022-11-05T09:35:51.915Z,97536.34
2022-11-05T09:38:19.832Z,97540.52
2022-11-05T09:40:54.816Z,97540.10
2022-11-05T09:43:31.764Z,97542.80
2022-11-05T09:46:06.916Z,97543.46
2022-11-05T09:48:35.906Z,97540.10
2022-11-05T09:51:05.864Z,97539.33
2022-11-05T09:53:37.058Z,97541.41
2022-11-05T09:56:11.707Z,97539.13
2022-11-05T09:58:45.435Z,97540.07
2022-11-05T10:01:23.386Z,97538.81
2022-11-05T10:03:56.151Z,97537.54
2022-11-05T10:06:26.629Z,97547.79
2022-11-05T10:09:03.870Z,97548.31
2022-11-05T10:11:43.548Z,97548.64
2022-11-05T10:14:21.696Z,97549.98
2022-11-05T10:16:56.187Z,97549.98
2022-11-05T10:19:25.523Z,97557.20
2022-11-05T10:22:11.921Z,97559.66
2022-11-05T10:24:47.260Z,97564.59
2022-11-05T10:27:23.542Z,97569.52
2022-11-05T10:29:51.820Z,97570.06
2022-11-05T10:32:30.827Z,97566.24
2022-11-05T10:35:02.764Z,97562.31
2022-11-05T10:37:33.504Z,97561.16
2022-11-05T10:40:30.442Z,97562.19
2022-11-05T10:43:07.003Z,97565.98
2022-11-05T10:45:52.866Z,97573.48
2022-11-05T10:48:26.895Z,97566.73
2022-11-05T10:50:55.203Z,97566.14
2022-11-05T10:53:39.145Z,97569.98
2022-11-05T10:56:30.951Z,97575.32
2022-11-05T10:59:00.688Z,97587.00
2022-11-05T11:01:30.296Z,97589.88
2022-11-05T11:04:20.639Z,97590.83
2022-11-05T11:06:54.359Z,97590.17
2022-11-05T11:09:28.591Z,97593.10
2022-11-05T11:12:07.614Z,97593.63
2022-11-05T11:14:35.593Z,97599.16
2022-11-05T11:17:26.997Z,97602.35
2022-11-05T11:20:22.649Z,97596.77
2022-11-05T11:23:01.368Z,97587.80
2022-11-05T11:25:51.448Z,97589.27
2022-11-05T11:28:36.005Z,97598.74
2022-11-05T11:31:08.835Z,97602.52
2022-11-05T11:33:39.715Z,97605.80
2022-11-05T11:36:10.681Z,97604.10
2022-11-05T11:38:40.324Z,97607.27
2022-11-05T11:41:11.018Z,97603.44
2022-11-05T11:43:41.597Z,97604.01
2022-11-05T11:46:20.119Z,97612.08
2022-11-05T11:48:49.500Z,97608.23
2022-11-05T11:51:30.536Z,97605.52
2022-11-05T11:54:00.223Z,97612.18
2022-11-05T11:56:30.444Z,97617.02
2022-11-05T11:59:08.927Z,97618.70
2022-11-05T12:01:40.106Z,97614.66
2022-11-05T12:04:40.634Z,97612.70
2022-11-05T12:07:17.357Z,97614.09
2022-11-05T12:10:15.005Z,97614.83
2022-11-05T12:13:17.578Z,97618.42
2022-11-05T12:16:06.303Z,97616.37
2022-11-05T12:18:36.896Z,97622.61
2022-11-05T12:21:41.108Z,97627.52
2022-11-05T12:24:30.750Z,97631.92
2022-11-05T12:27:20.052Z,97629.31
2022-11-05T12:30:05.561Z,97635.34
2022-11-05T12:33:07.747Z,97634.60
2022-11-05T12:35:58.258Z,97632.31
2022-11-05T12:38:33.382Z,97641.95
2022-11-05T12:41:08.156Z,97643.70
2022-11-05T12:43:39.452Z,97645.98
2022-11-05T12:46:10.594Z,97644.95
2022-11-05T12:48:59.781Z,97645.77
2022-11-05T12:51:58.588Z,97647.88
2022-11-05T12:54:47.837Z,97647.87
2022-11-05T12:57:17.892Z,97645.04
2022-11-05T12:59:51.529Z,97647.47
2022-11-05T13:02:48.066Z,97648.16
2022-11-05T13:05:40.398Z,97650.08
2022-11-05T13:08:20.307Z,97648.62
2022-11-05T13:10:55.184Z,97656.04
2022-11-05T13:13:23.068Z,97655.80
2022-11-05T13:15:55.407Z,97659.00
2022-11-05T13:18:54.075Z,97664.90
2022-11-05T13:21:25.963Z,97673.45
2022-11-05T13:24:04.913Z,97671.98
2022-11-05T13:26:45.150Z,97670.58
2022-11-05T13:29:43.869Z,97673.48
2022-11-05T13:32:39.496Z,97676.01
2022-11-05T13:35:16.025Z,97677.27
2022-11-05T13:38:07.430Z,97681.89
2022-11-05T13:41:18.535Z,97690.53
2022-11-05T13:44:31.285Z,97697.06
2022-11-05T13:47:33.447Z,97699.27
2022-11-05T13:50:16.819Z,97702.25
2022-11-05T13:52:44.853Z,97701.59
2022-11-05T13:55:36.120Z,97702.27
2022-11-05T13:58:27.914Z,97706.18
2022-11-05T14:01:27.145Z,97714.84
2022-11-05T14:03:56.751Z,97717.22
2022-11-05T14:06:36.585Z,97715.08
2022-11-05T14:09:10.072Z,97716.12
2022-11-05T14:11:41.837Z,97722.89
2022-11-05T14:14:24.119Z,97727.74
2022-11-05T14:16:54.804Z,97731.63
2022-11-05T14:19:32.661Z,97735.55
2022-11-05T14:22:32.441Z,97733.41
2022-11-05T14:25:19.379Z,97735.66
2022-11-05T14:27:49.683Z,97740.83
2022-11-05T14:30:54.857Z,97748.67
2022-11-05T14:33:25.689Z,97748.75
2022-11-05T14:36:33.855Z,97755.32
2022-11-05T14:39:21.880Z,97762.20
2022-11-05T14:41:57.851Z,97768.13
2022-11-05T14:44:27.125Z,97769.65
2022-11-05T14:47:17.235Z,97768.27
2022-11-05T14:49:53.198Z,97768.80
2022-11-05T14:52:21.593Z,97772.80
2022-11-05T14:54:56.303Z,97781.30
2022-11-05T14:57:42.843Z,97782.29
2022-11-05T15:00:29.452Z,97780.94
2022-11-05T15:03:03.623Z,97782.52
2022-11-05T15:05:33.299Z,97787.80
2022-11-05T15:08:29.237Z,97794.11
2022-11-05T15:11:07.376Z,97799.25
2022-11-05T15:13:42.996Z,97805.77
2022-11-05T15:16:20.937Z,97806.96
2022-11-05T15:18:49.151Z,97822.17
2022-11-05T15:21:20.185Z,97822.46
2022-11-05T15:23:52.431Z,97828.64
2022-11-05T15:26:23.671Z,97831.08
2022-11-05T15:28:53.114Z,97832.84
2022-11-05T15:31:41.267Z,97834.30
2022-11-05T15:34:25.032Z,97834.06
2022-11-05T15:36:56.443Z,97840.30
2022-11-05T15:39:40.592Z,97842.20
2022-11-05T15:42:16.714Z,97848.01
2022-11-05T15:45:18.961Z,97851.27
2022-11-05T15:47:46.903Z,97854.74
2022-11-05T15:50:16.067Z,97853.23
2022-11-05T15:52:54.767Z,97854.69
2022-11-05T15:55:25.545Z,97853.04
2022-11-05T15:58:01.093Z,97855.72
2022-11-05T16:00:33.204Z,97854.83
2022-11-05T16:03:06.178Z,97860.92
2022-11-05T16:05:41.055Z,97863.89
2022-11-05T16:08:19.179Z,97865.60
2022-11-05T16:10:50.865Z,97864.00
2022-11-05T16:13:34.229Z,97865.19
2022-11-05T16:16:21.566Z,97863.66
2022-11-05T16:18:49.484Z,97859.38
2022-11-05T16:21:22.723Z,97863.70
2022-11-05T16:24:00.719Z,97861.01
2022-11-05T16:27:02.289Z,97865.87
2022-11-05T16:29:29.358Z,97867.00
2022-11-05T16:32:04.125Z,97868.30
2022-11-05T16:34:42.903Z,97872.04
2022-11-05T16:37:14.928Z,97873.79
2022-11-05T16:39:42.863Z,97870.86
2022-11-05T16:42:23.019Z,97876.71
2022-11-05T16:44:52.612Z,97878.98
2022-11-05T16:47:21.777Z,97886.54
2022-11-05T16:49:50.107Z,97893.61
2022-11-05T16:52:18.257Z,97899.61
2022-11-05T16:54:46.137Z,97906.51
2022-11-05T16:57:30.728Z,97907.64
2022-11-05T17:00:00.479Z,97906.40
2022-11-05T17:02:28.759Z,97911.55
2022-11-05T17:04:56.807Z,97921.38
2022-11-05T17:07:24.731Z,97922.77
2022-11-05T17:09:52.686Z,97924.04
2022-11-05T17:12:20.550Z,97933.58
2022-11-05T17:14:48.460Z,97937.13
2022-11-05T17:17:16.309Z,97941.42
2022-11-05T17:19:44.620Z,97942.72
2022-11-05T17:22:12.477Z,97946.03
2022-11-05T17:24:40.370Z,97941.95
2022-11-05T17:27:08.303Z,97939.00
2022-11-05T17:29:36.226Z,97942.77
2022-11-05T17:32:06.414Z,97942.67
2022-11-05T17:34:34.295Z,97940.48
2022-11-05T17:37:02.288Z,97944.92
2022-11-05T17:39:31.813Z,97948.25
2022-11-05T17:42:00.224Z,97945.48
2022-11-05T17:44:28.204Z,97946.98
2022-11-05T17:46:56.131Z,97949.41
2022-11-05T17:49:24.063Z,97949.92
2022-11-05T17:51:52.142Z,97947.41
2022-11-05T17:54:20.012Z,97947.34
2022-11-05T17:56:47.935Z,97950.59
2022-11-05T17:59:15.892Z,97951.75
2022-11-05T18:01:44.988Z,97950.32
2022-11-05T18:04:13.411Z,97955.75
2022-11-05T18:06:41.847Z,97957.43
2022-11-05T18:09:11.029Z,97965.98
2022-11-05T18:11:40.092Z,97964.11
2022-11-05T18:14:08.405Z,97962.86
2022-11-05T18:16:36.741Z,97968.55
2022-11-05T18:19:05.545Z,97974.61
2022-11-05T18:21:33.510Z,97973.69
2022-11-05T18:24:06.144Z,97973.58
2022-11-05T18:26:34.908Z,97978.86
2022-11-05T18:29:05.047Z,97978.44
2022-11-05T18:31:33.126Z,97982.13
2022-11-05T18:34:01.336Z,97986.90
2022-11-05T18:36:31.224Z,97986.49
2022-11-05T18:39:00.603Z,97992.67
2022-11-05T18:41:28.763Z,97996.52
2022-11-05T18:44:01.193Z,97997.54
2022-11-05T18:46:56.539Z,98001.50
2022-11-05T18:49:18.492Z,97999.25
2022-11-05T18:51:46.425Z,97997.98
2022-11-05T18:54:14.609Z,97995.46
2022-11-05T18:56:45.671Z,97996.77
2022-11-05T19:02:05.964Z,97998.61
2022-11-05T19:04:36.443Z,98000.71
2022-11-05T19:07:05.893Z,98003.64
2022-11-05T19:09:35.909Z,98004.88
2022-11-05T19:12:05.775Z,98003.65
2022-11-05T19:14:34.962Z,98005.07
2022-11-05T19:17:03.593Z,98013.22
2022-11-05T19:19:31.787Z,98019.17
2022-11-05T19:21:59.934Z,98020.47
2022-11-05T19:24:28.269Z,98021.86
2022-11-05T19:26:56.375Z,98027.69
2022-11-05T19:29:24.367Z,98031.14
2022-11-05T19:31:52.326Z,98034.13
2022-11-05T19:34:20.681Z,98036.55
2022-11-05T19:36:48.756Z,98037.34
2022-11-05T19:39:16.897Z,98039.27
2022-11-05T19:41:44.820Z,98043.48
2022-11-05T19:44:13.759Z,98047.98
2022-11-05T19:46:41.810Z,98049.42
2022-11-05T19:49:11.842Z,98051.73
2022-11-05T19:51:39.786Z,98055.15
2022-11-05T19:54:07.807Z,98063.39
2022-11-05T19:56:36.946Z,98066.63
2022-11-05T19:59:09.129Z,98062.91
2022-11-05T20:01:37.585Z,98068.02
2022-11-05T20:04:06.145Z,98068.93
2022-11-05T20:06:40.695Z,98073.77
2022-11-05T20:09:27.420Z,98076.88
2022-11-05T20:11:56.842Z,98084.39
2022-11-05T20:14:26.277Z,98082.94
2022-11-05T20:16:54.715Z,98083.73
2022-11-05T20:19:23.500Z,98089.45
2022-11-05T20:21:51.722Z,98097.27
2022-11-05T20:24:24.873Z,98099.45
2022-11-05T20:26:55.320Z,98103.73
2022-11-05T20:29:27.850Z,98105.28
2022-11-05T20:31:58.915Z,98109.77
2022-11-05T20:34:29.543Z,98106.67
2022-11-05T20:36:57.765Z,98106.88
2022-11-05T20:39:26.726Z,98109.56
2022-11-05T20:41:56.706Z,98107.65
2022-11-05T20:44:24.951Z,98112.00
2022-11-05T20:46:52.941Z,98118.10
2022-11-05T20:49:25.407Z,98118.54
2022-11-05T20:51:54.557Z,98119.59
2022-11-05T20:54:22.722Z,98117.83
2022-11-05T20:56:50.756Z,98115.77
2022-11-05T20:59:19.621Z,98120.17
2022-11-05T21:01:47.987Z,98119.68
2022-11-05T21:04:16.081Z,98120.67
2022-11-05T21:06:44.036Z,98123.02
2022-11-05T21:09:13.023Z,98122.90
2022-11-05T21:12:00.143Z,98131.42
2022-11-05T21:14:28.375Z,98133.55
2022-11-05T21:16:56.388Z,98134.95
2022-11-05T21:19:24.413Z,98137.48
2022-11-05T21:21:52.590Z,98136.10
2022-11-05T21:24:20.840Z,98132.29
2022-11-05T21:26:50.159Z,98131.27
2022-11-05T21:29:19.665Z,98133.73
2022-11-05T21:31:47.745Z,98139.86
2022-11-05T21:34:17.409Z,98137.54
2022-11-05T21:36:47.180Z,98137.32
2022-11-05T21:39:15.254Z,98142.26
2022-11-05T21:41:43.201Z,98143.45
2022-11-05T21:44:11.645Z,98146.72
2022-11-05T21:46:39.593Z,98146.15
2022-11-05T21:49:08.053Z,98146.56
2022-11-05T21:51:55.008Z,98145.55
2022-11-05T21:54:41.703Z,98142.71
2022-11-05T21:57:33.221Z,98141.91
2022-11-05T22:00:03.884Z,98145.23
2022-11-05T22:02:32.332Z,98142.27
2022-11-05T22:05:02.354Z,98143.66
2022-11-05T22:07:36.530Z,98143.28
2022-11-05T22:10:14.694Z,98146.22
2022-11-05T22:12:45.249Z,98145.23
2022-11-05T22:15:14.358Z,98147.79
2022-11-05T22:17:46.479Z,98146.67
2022-11-05T22:20:16.105Z,98143.41
2022-11-05T22:22:44.857Z,98145.38
2022-11-05T22:25:13.556Z,98145.75
2022-11-05T22:27:43.886Z,98149.13
2022-11-05T22:30:13.470Z,98150.30
2022-11-05T22:32:41.519Z,98156.10
2022-11-05T22:35:09.867Z,98155.08
2022-11-05T22:37:37.909Z,98152.35
2022-11-05T22:40:06.389Z,98153.69
2022-11-05T22:42:34.436Z,98153.69
2022-11-05T22:45:02.632Z,98156.38
2022-11-05T22:47:30.547Z,98159.63
2022-11-05T22:49:58.549Z,98159.56
2022-11-05T22:52:26.493Z,98158.23
2022-11-05T22:54:54.443Z,98159.56
2022-11-05T22:57:22.335Z,98155.80
2022-11-05T22:59:50.534Z,98152.79
2022-11-05T23:02:18.632Z,98149.86
2022-11-05T23:04:46.691Z,98154.77
2022-11-05T23:07:33.094Z,98154.95
2022-11-05T23:10:19.979Z,98154.16
2022-11-05T23:12:47.915Z,98155.92
2022-11-05T23:15:34.692Z,98155.66
2022-11-05T23:18:21.234Z,98154.77
2022-11-05T23:21:07.618Z,98152.45
2022-11-05T23:23:54.403Z,98157.02
2022-11-05T23:26:41.010Z,98165.40
2022-11-05T23:29:09.110Z,98169.75
2022-11-05T23:31:55.788Z,98167.11
2022-11-05T23:34:23.689Z,98167.33
2022-11-05T23:37:10.292Z,98170.10
2022-11-05T23:39:42.435Z,98172.68
2022-11-05T23:42:30.366Z,98173.71
2022-11-05T23:45:16.993Z,98175.38
2022-11-05T23:48:03.961Z,98173.02
2022-11-05T23:50:37.130Z,98173.88
2022-11-05T23:53:08.271Z,98169.84
2022-11-05T23:55:37.091Z,98172.95
2022-11-05T23:58:05.677Z,98170.42
